Airfield :
LOGIN :

Register | Disclaimer

   EN    FR    IT 

 










Legend :    VFR   Marginal VFR   IFR   Intensive IFR   Very Intensive IFR
Visi :
Ceiling :
>= 8 km
>= 3000ft
5 to 8 km
1000 to 3000 ft
1500m to 5 km
500 to 1000 ft
800 to 1500m
200 to 500 ft
< 800m
< 200 ft
Symbols :   Thunderstorms  Fog  Heavy snow  Heavy precipitations  Wind > 20 kt
SIGMETs :     Misc.  Thunderstorms  Icing  Turbulence  Mountain Waves  Volcanic Ashes






- Airport Elevation : 291 ft
- IATA code : ORY


LFPO - Paris-Orly

CURRENT METAR :
  • 270800Z 16014KT 130V190 3000 -RA BR BKN005 OVC011 04/03 Q0995 RERA TEMPO 1200 RA

EXPIRED METARs :
  • 270730Z 17015KT 4000 -RA BKN008 OVC013 04/03 Q0996 TEMPO 3000 RA
  • 270712Z 17017G28KT 6000 -RA BKN008 OVC013 04/03 Q0997 TEMPO 3000 RA
  • 270700Z 6000 RA BKN007 OVC013 04/03 Q0998 TEMPO 3000 RA
  • 270630Z 16013KT 7000 RA BKN007 OVC013 04/03 Q1000 TEMPO 3000 RA
  • 270600Z 16014KT 7000 -RA SCT008 OVC014 04/03 Q1001 TEMPO 3000 RA BKN008
  • 270530Z 18011KT 7000 -RA BKN011 03/02 Q1002 TEMPO 3000 RA BKN008
  • 270500Z 16009KT 9999 -RA BKN023 OVC046 04/02 Q1004 NOSIG

TAF TAF LFPO
Valid from the 27 at 06:00 until the 28 at 12:00 UTC


270500Z 2706/2812 18014KT 9999 BKN016
TEMPO 2706/2710 20015G30KT 3000 RA BKN008
PROB30
TEMPO 2706/2708 1200 RASN
BECMG 2710/2711 27015KT BKN020
TEMPO 2711/2717 26015G35KT
PROB40
TEMPO 2712/2714 30025G45KT
BECMG 2717/2719 CAVOK
BECMG 2719/2721 21006KT
BECMG 2809/2811 BKN030
ATIS : +33 1 49 75 65 80



MET'MAP, your aeronautical weather chart ! - Copyright ORBIFLY December 2007 - Disclaimer

ORBIFLY MET'MAP TEAM :

Programming & Development : Alexandra Zaïnal
Concept & original design : Baudouin d'Aumeries
Assistance for programming : Marc-Olivier Méhu
Technical & hardware support : Manuel Goepfert

Contact : metmap@orbifly.com




SOURCES & CREDITS :

   NOAA